Time;durP1;ratioP1;P1;durP2;ratioP2;P2;SDS_P1;SDS_P2;PMS_P1;PMS_P2;Temp;Humidity;BMP_temperature;BMP_pressure;BME280_temperature;BME280_humidity;BME280_pressure;Samples;Min_cycle;Max_cycle;Signal;HPM_P1;HPM_P2
2021/01/29 00:00:41;;;;;;;29.60;8.27;;;9.50;99.90;;;;;;5137603;27;20434;-72
2021/01/29 00:03:11;;;;;;;28.47;7.90;;;9.50;99.90;;;;;;5137014;27;20453;-72
2021/01/29 00:05:41;;;;;;;25.13;7.93;;;9.50;99.90;;;;;;5136719;27;20473;-72
2021/01/29 00:08:07;;;;;;;25.63;7.70;;;9.50;99.90;;;;;;5136949;27;20445;-72
2021/01/29 00:10:33;;;;;;;22.20;8.33;;;9.50;99.90;;;;;;5137467;27;20477;-72
2021/01/29 00:13:01;;;;;;;23.77;7.30;;;9.60;99.90;;;;;;5137059;27;20450;-72
2021/01/29 00:15:29;;;;;;;33.07;9.13;;;9.60;99.90;;;;;;5137394;27;20819;-71
2021/01/29 00:17:55;;;;;;;39.13;8.90;;;9.50;99.90;;;;;;5137954;27;20449;-72
2021/01/29 00:20:24;;;;;;;22.77;8.33;;;9.50;99.90;;;;;;5137058;27;20441;-72
2021/01/29 00:22:51;;;;;;;22.70;7.77;;;9.60;99.90;;;;;;5136886;27;20449;-72
2021/01/29 00:25:20;;;;;;;26.10;7.43;;;9.60;99.90;;;;;;5136871;27;20462;-72
2021/01/29 00:27:47;;;;;;;21.00;7.43;;;9.60;99.90;;;;;;5136834;27;20469;-72
2021/01/29 00:30:15;;;;;;;24.53;7.13;;;9.60;99.90;;;;;;5136324;27;20466;-72
2021/01/29 00:32:42;;;;;;;23.03;6.87;;;9.60;99.90;;;;;;5118060;27;20445;-72
2021/01/29 00:35:10;;;;;;;16.80;7.23;;;9.60;99.90;;;;;;5136694;27;20515;-72
2021/01/29 00:37:36;;;;;;;21.50;6.93;;;9.60;99.90;;;;;;5136885;27;20445;-72
2021/01/29 00:40:03;;;;;;;24.33;6.40;;;9.60;99.90;;;;;;5136515;27;20442;-72
2021/01/29 00:42:30;;;;;;;24.30;8.33;;;9.50;99.90;;;;;;5136461;27;20446;-72
2021/01/29 00:44:56;;;;;;;17.20;6.70;;;9.60;99.90;;;;;;5136370;27;20458;-72
2021/01/29 00:47:22;;;;;;;27.77;7.50;;;9.60;99.90;;;;;;5136178;27;20442;-72
2021/01/29 00:49:49;;;;;;;22.70;6.40;;;9.50;99.90;;;;;;5136137;27;20837;-72
2021/01/29 00:52:15;;;;;;;20.20;5.93;;;9.60;99.90;;;;;;5136320;27;20438;-72
2021/01/29 00:54:41;;;;;;;22.53;6.97;;;9.60;99.90;;;;;;5136015;27;20450;-72
2021/01/29 00:57:09;;;;;;;20.73;6.47;;;9.70;99.90;;;;;;5136187;27;20426;-72
2021/01/29 00:59:36;;;;;;;16.27;5.90;;;9.70;99.90;;;;;;5136053;27;20448;-72
2021/01/29 01:02:02;;;;;;;24.43;7.30;;;9.60;99.90;;;;;;5136050;27;20446;-72
2021/01/29 01:04:28;;;;;;;17.73;6.43;;;9.70;99.90;;;;;;5135849;27;20445;-72
2021/01/29 01:06:55;;;;;;;19.33;5.67;;;9.70;99.90;;;;;;5135544;27;20974;-72
2021/01/29 01:09:22;;;;;;;19.37;6.90;;;9.70;99.90;;;;;;5135743;27;20448;-72
2021/01/29 01:11:48;;;;;;;19.87;7.07;;;9.70;99.90;;;;;;5135661;27;20466;-72
2021/01/29 01:14:14;;;;;;;22.23;7.10;;;9.60;99.90;;;;;;5135687;27;20442;-72
2021/01/29 01:16:40;;;;;;;16.57;5.93;;;9.60;99.90;;;;;;5135542;27;20466;-72
2021/01/29 01:19:06;;;;;;;20.53;6.90;;;9.70;99.90;;;;;;5135284;27;20908;-72
2021/01/29 01:21:33;;;;;;;16.83;7.10;;;9.60;99.90;;;;;;5135211;27;20954;-72
2021/01/29 01:24:00;;;;;;;20.70;5.93;;;9.60;99.90;;;;;;5135466;27;20844;-72
2021/01/29 01:26:27;;;;;;;11.17;6.40;;;9.70;99.90;;;;;;5135355;27;20462;-72
2021/01/29 01:28:53;;;;;;;23.20;6.27;;;9.70;99.90;;;;;;5136100;27;20992;-72
2021/01/29 01:31:19;;;;;;;13.33;5.83;;;9.70;99.90;;;;;;5137856;27;20465;-72
2021/01/29 01:33:45;;;;;;;13.90;6.83;;;9.70;99.90;;;;;;5137339;27;20449;-72
2021/01/29 01:36:13;;;;;;;23.63;7.03;;;9.70;99.90;;;;;;5136835;27;20458;-72
2021/01/29 01:38:39;;;;;;;17.47;7.30;;;9.70;99.90;;;;;;5137489;27;20450;-72
2021/01/29 01:41:07;;;;;;;15.77;6.00;;;9.70;99.90;;;;;;5137224;27;20430;-73
2021/01/29 01:43:34;;;;;;;21.93;6.27;;;9.70;99.90;;;;;;5135093;27;20438;-72
2021/01/29 01:46:04;;;;;;;21.73;7.03;;;9.70;99.90;;;;;;5135195;27;20462;-72
2021/01/29 01:48:52;;;;;;;18.27;7.20;;;9.70;99.90;;;;;;5135176;27;20433;-72
2021/01/29 01:51:27;;;;;;;18.20;6.77;;;9.70;99.90;;;;;;5130560;27;20473;-72
2021/01/29 01:53:58;;;;;;;16.53;6.53;;;9.70;99.90;;;;;;5134768;27;20422;-72
2021/01/29 01:56:32;;;;;;;19.00;6.93;;;9.70;99.90;;;;;;5134662;27;20465;-72
2021/01/29 01:59:01;;;;;;;16.13;7.40;;;9.70;99.90;;;;;;5134693;27;20430;-72
2021/01/29 02:01:28;;;;;;;19.50;7.60;;;9.70;99.90;;;;;;5134674;27;20958;-72
2021/01/29 02:03:56;;;;;;;14.47;7.90;;;9.70;99.90;;;;;;5134530;27;20438;-72
2021/01/29 02:06:23;;;;;;;19.10;9.13;;;9.70;99.90;;;;;;5134337;27;20896;-72
2021/01/29 02:08:51;;;;;;;23.50;7.30;;;9.70;99.90;;;;;;5134459;27;20791;-72
2021/01/29 02:11:20;;;;;;;17.97;6.57;;;9.70;99.90;;;;;;5134667;27;20473;-72
2021/01/29 02:13:48;;;;;;;12.73;6.00;;;9.70;99.90;;;;;;5134785;27;20784;-72
2021/01/29 02:16:19;;;;;;;16.00;6.20;;;9.70;99.90;;;;;;5134577;27;20458;-72
2021/01/29 02:19:09;;;;;;;12.23;5.97;;;9.60;99.90;;;;;;5134667;27;20422;-72
2021/01/29 02:22:29;;;;;;;9.10;5.57;;;9.60;99.90;;;;;;5134574;27;20418;-72
2021/01/29 02:25:49;;;;;;;7.53;5.03;;;9.70;99.90;;;;;;5134541;27;20454;-72
2021/01/29 02:28:31;;;;;;;9.80;5.37;;;9.70;99.90;;;;;;5134468;28;20441;-72
2021/01/29 02:31:23;;;;;;;8.37;4.60;;;9.70;99.90;;;;;;5134470;28;20465;-71
2021/01/29 02:34:22;;;;;;;12.17;5.13;;;9.70;99.90;;;;;;5134516;28;20438;-71
2021/01/29 02:37:30;;;;;;;13.20;5.40;;;9.70;99.90;;;;;;5134372;28;20457;-72
2021/01/29 02:40:13;;;;;;;8.47;5.20;;;9.70;99.90;;;;;;5134380;28;20807;-71
2021/01/29 02:43:02;;;;;;;10.70;4.23;;;9.60;99.90;;;;;;5134433;28;20505;-72
2021/01/29 02:45:32;;;;;;;8.83;4.47;;;9.60;99.90;;;;;;5134323;28;20461;-72
2021/01/29 02:48:11;;;;;;;15.00;4.40;;;9.70;99.90;;;;;;5134375;28;20475;-72
2021/01/29 02:50:56;;;;;;;6.50;4.37;;;9.70;99.90;;;;;;5134272;28;20462;-72
2021/01/29 02:53:32;;;;;;;9.30;4.27;;;9.70;99.90;;;;;;5134078;28;20418;-72
2021/01/29 02:56:08;;;;;;;7.07;3.87;;;9.70;99.90;;;;;;5136755;27;20464;-72
2021/01/29 02:58:42;;;;;;;12.73;4.60;;;9.70;99.90;;;;;;5138396;27;20481;-70
2021/01/29 03:01:15;;;;;;;5.67;3.67;;;9.70;99.90;;;;;;5138373;27;20452;-72
2021/01/29 03:03:48;;;;;;;9.53;3.73;;;9.70;99.90;;;;;;5138305;27;20426;-72
2021/01/29 03:06:19;;;;;;;7.83;3.80;;;9.60;99.90;;;;;;5137876;27;20481;-72
2021/01/29 03:08:54;;;;;;;9.30;3.60;;;9.60;99.90;;;;;;5138241;27;20776;-72
2021/01/29 03:11:26;;;;;;;9.23;2.80;;;9.60;99.90;;;;;;5138351;27;20461;-72
2021/01/29 03:13:58;;;;;;;6.90;2.60;;;9.50;99.90;;;;;;5138084;27;20438;-72
2021/01/29 03:16:31;;;;;;;6.80;2.73;;;9.60;99.90;;;;;;5137621;27;20826;-72
2021/01/29 03:19:01;;;;;;;6.20;2.87;;;9.50;99.90;;;;;;5137986;27;20426;-72
2021/01/29 03:21:33;;;;;;;6.30;3.10;;;9.60;99.90;;;;;;5137983;27;20482;-72
2021/01/29 03:24:05;;;;;;;5.43;2.60;;;9.60;99.90;;;;;;5137573;27;20903;-72
2021/01/29 03:26:37;;;;;;;12.10;2.80;;;9.60;99.90;;;;;;5137728;27;20820;-72
2021/01/29 03:29:09;;;;;;;5.40;3.07;;;9.60;99.90;;;;;;5137736;27;20462;-72
2021/01/29 03:31:37;;;;;;;7.57;2.60;;;9.60;99.90;;;;;;5137650;27;20461;-72
2021/01/29 03:34:10;;;;;;;4.03;2.67;;;9.60;99.90;;;;;;5137588;27;20442;-71
2021/01/29 03:36:42;;;;;;;9.90;3.40;;;9.60;99.90;;;;;;5137535;27;20469;-72
2021/01/29 03:39:12;;;;;;;7.70;2.63;;;9.60;99.90;;;;;;5137554;27;20430;-72
2021/01/29 03:41:42;;;;;;;7.57;2.80;;;9.60;99.90;;;;;;5137570;27;20441;-72
2021/01/29 03:44:18;;;;;;;3.07;1.80;;;9.60;99.90;;;;;;5137189;27;20433;-72
2021/01/29 03:46:54;;;;;;;3.97;1.80;;;9.60;99.90;;;;;;5137346;27;20513;-72
2021/01/29 03:49:31;;;;;;;5.43;2.30;;;9.60;99.90;;;;;;5137404;27;20426;-72
2021/01/29 03:52:08;;;;;;;5.23;2.00;;;9.60;99.90;;;;;;5137302;27;20514;-72
2021/01/29 03:54:42;;;;;;;3.93;1.83;;;9.60;99.90;;;;;;5137219;27;20425;-72
2021/01/29 03:57:22;;;;;;;4.23;2.37;;;9.60;99.90;;;;;;5136954;27;20945;-72
2021/01/29 04:00:00;;;;;;;3.40;1.67;;;9.70;99.90;;;;;;5137204;27;20433;-72
2021/01/29 04:02:30;;;;;;;4.23;2.10;;;9.70;99.90;;;;;;5137179;27;20426;-72
2021/01/29 04:05:08;;;;;;;3.80;1.87;;;9.70;99.90;;;;;;5136874;27;20461;-72
2021/01/29 04:07:39;;;;;;;6.23;2.10;;;9.70;99.90;;;;;;5136070;27;20437;-72
2021/01/29 04:10:08;;;;;;;5.53;1.93;;;9.70;99.90;;;;;;5136939;27;20794;-72
2021/01/29 04:12:42;;;;;;;3.70;1.40;;;9.70;99.90;;;;;;5136910;27;20438;-72
2021/01/29 04:15:14;;;;;;;3.27;1.33;;;9.70;99.90;;;;;;5136824;27;20508;-72
2021/01/29 04:17:47;;;;;;;6.97;1.90;;;9.80;99.90;;;;;;5136886;27;20422;-72
2021/01/29 04:20:29;;;;;;;1.50;1.40;;;9.80;99.90;;;;;;5136516;27;20429;-72
2021/01/29 04:22:57;;;;;;;4.67;1.83;;;9.80;99.90;;;;;;5136786;27;20445;-72
2021/01/29 04:25:29;;;;;;;2.50;1.30;;;9.80;99.90;;;;;;5136607;27;20527;-72
2021/01/29 04:28:02;;;;;;;3.33;1.20;;;9.90;99.90;;;;;;5136310;27;20426;-72
2021/01/29 04:30:31;;;;;;;3.47;1.23;;;9.90;99.90;;;;;;5136542;27;20488;-72
2021/01/29 04:33:02;;;;;;;2.20;0.90;;;9.90;99.90;;;;;;5136489;27;20475;-72
2021/01/29 04:35:29;;;;;;;4.00;1.87;;;9.90;99.90;;;;;;5136449;27;20462;-72
2021/01/29 04:38:04;;;;;;;4.70;2.40;;;9.90;99.90;;;;;;5136142;27;20936;-72
2021/01/29 04:40:36;;;;;;;4.80;2.60;;;10.00;99.90;;;;;;5136426;27;20930;-71
2021/01/29 04:43:19;;;;;;;7.73;2.83;;;10.00;99.90;;;;;;5136439;27;20834;-72
2021/01/29 04:46:08;;;;;;;5.37;1.97;;;9.90;99.90;;;;;;5136001;27;20489;-72
2021/01/29 04:48:42;;;;;;;3.10;1.20;;;9.80;99.90;;;;;;5136352;27;20422;-72
2021/01/29 04:51:46;;;;;;;1.43;0.83;;;9.80;99.90;;;;;;5136223;27;20527;-72
2021/01/29 04:54:35;;;;;;;2.30;0.93;;;9.80;99.90;;;;;;5032812;28;20438;-72
2021/01/29 04:57:37;;;;;;;1.13;1.03;;;9.80;99.90;;;;;;5032743;28;20788;-72
2021/01/29 05:00:38;;;;;;;2.07;1.47;;;9.90;99.90;;;;;;5123588;27;20803;-72
2021/01/29 05:03:55;;;;;;;1.17;1.07;;;10.00;99.90;;;;;;5128552;27;20458;-72
2021/01/29 05:06:39;;;;;;;2.70;2.50;;;10.00;99.90;;;;;;5032380;28;20478;-72
2021/01/29 05:09:36;;;;;;;2.63;2.30;;;10.10;99.90;;;;;;5135788;27;20422;-72
2021/01/29 05:12:17;;;;;;;1.60;1.50;;;10.10;99.90;;;;;;5135722;27;20527;-72
2021/01/29 05:15:03;;;;;;;0.97;0.97;;;10.10;99.90;;;;;;5135665;27;20509;-72
2021/01/29 05:17:49;;;;;;;2.33;0.87;;;10.10;99.90;;;;;;5135230;27;20481;-72
2021/01/29 05:20:46;;;;;;;3.30;1.00;;;10.10;99.90;;;;;;5135588;27;20423;-72
2021/01/29 05:23:40;;;;;;;1.73;0.80;;;10.10;99.90;;;;;;5092393;27;20442;-72
2021/01/29 05:26:44;;;;;;;1.13;0.70;;;10.10;99.90;;;;;;5135426;27;20468;-72
2021/01/29 05:29:27;;;;;;;1.00;0.77;;;10.20;99.90;;;;;;5135097;27;20447;-72
2021/01/29 05:32:32;;;;;;;1.00;0.67;;;10.20;99.90;;;;;;5135287;27;20462;-72
2021/01/29 05:35:24;;;;;;;3.27;0.90;;;10.20;99.90;;;;;;5031902;28;20455;-72
2021/01/29 05:38:12;;;;;;;1.93;0.63;;;10.30;99.90;;;;;;5135004;27;20518;-72
2021/01/29 05:40:59;;;;;;;4.57;0.97;;;10.30;99.90;;;;;;5135218;27;20440;-72
2021/01/29 05:43:58;;;;;;;1.70;1.13;;;10.30;99.90;;;;;;5135217;27;20479;-72
2021/01/29 05:46:29;;;;;;;0.90;0.90;;;10.30;99.90;;;;;;5134306;27;20470;-71
2021/01/29 05:49:14;;;;;;;1.40;0.80;;;10.20;99.90;;;;;;5134777;27;20426;-71
2021/01/29 05:52:23;;;;;;;1.63;1.00;;;10.20;99.90;;;;;;5134931;27;20477;-71
2021/01/29 05:55:18;;;;;;;2.73;1.30;;;10.20;99.90;;;;;;5108881;27;21038;-71
2021/01/29 05:58:07;;;;;;;1.03;1.03;;;10.20;99.90;;;;;;5131625;27;20474;-71
2021/01/29 06:01:15;;;;;;;2.07;1.60;;;10.10;99.90;;;;;;5134893;27;20422;-71
2021/01/29 06:04:12;;;;;;;2.73;1.70;;;10.10;99.90;;;;;;5134822;27;20780;-71
2021/01/29 06:07:20;;;;;;;2.17;2.00;;;10.10;99.90;;;;;;5134339;27;20466;-71
2021/01/29 06:10:19;;;;;;;2.50;1.33;;;10.10;99.90;;;;;;5134788;27;20433;-71
2021/01/29 06:13:14;;;;;;;1.60;1.50;;;10.10;99.90;;;;;;5134715;27;20441;-71
2021/01/29 06:16:34;;;;;;;3.03;1.23;;;10.00;99.90;;;;;;5130349;27;20473;-71
2021/01/29 06:19:33;;;;;;;2.03;1.40;;;10.10;99.90;;;;;;5115203;27;20446;-71
2021/01/29 06:22:18;;;;;;;1.80;1.10;;;10.00;99.90;;;;;;5134543;27;20474;-71
2021/01/29 06:25:01;;;;;;;1.33;1.33;;;10.00;99.90;;;;;;5134435;27;20421;-71
2021/01/29 06:27:54;;;;;;;1.77;1.50;;;10.00;99.90;;;;;;5134483;27;20461;-71
2021/01/29 06:30:46;;;;;;;1.80;1.53;;;10.00;99.90;;;;;;5133917;27;20900;-71
2021/01/29 06:33:40;;;;;;;2.30;2.10;;;10.00;99.90;;;;;;5078519;28;20456;-70
2021/01/29 06:36:20;;;;;;;2.50;2.27;;;10.00;99.90;;;;;;5134374;28;20510;-73
2021/01/29 06:39:06;;;;;;;2.90;2.70;;;10.00;99.90;;;;;;5134415;28;20429;-72
2021/01/29 06:42:01;;;;;;;2.50;2.00;;;10.00;99.90;;;;;;5134055;28;20969;-72
2021/01/29 06:44:48;;;;;;;5.37;2.30;;;10.10;99.90;;;;;;5134369;28;20429;-72
2021/01/29 06:47:33;;;;;;;5.30;2.40;;;10.10;99.90;;;;;;5134337;28;20429;-72
2021/01/29 06:50:17;;;;;;;2.50;2.30;;;10.10;99.90;;;;;;5134321;28;20426;-72
2021/01/29 06:53:05;;;;;;;2.10;2.00;;;10.10;99.90;;;;;;5134265;28;20426;-72
2021/01/29 06:55:59;;;;;;;2.83;2.17;;;10.10;99.90;;;;;;5133871;28;20964;-72
2021/01/29 06:58:45;;;;;;;1.93;1.83;;;10.10;99.90;;;;;;5134209;28;20438;-72
2021/01/29 07:01:43;;;;;;;2.40;2.30;;;10.10;99.90;;;;;;5134239;28;20430;-72
2021/01/29 07:05:06;;;;;;;2.33;2.13;;;10.10;99.90;;;;;;5098362;28;20947;-72
2021/01/29 07:07:51;;;;;;;2.33;2.13;;;10.10;99.90;;;;;;5073699;28;20457;-72
2021/01/29 07:10:45;;;;;;;2.73;2.53;;;10.10;99.90;;;;;;5133727;28;20451;-71
2021/01/29 07:13:18;;;;;;;4.60;3.23;;;10.10;99.90;;;;;;5129965;28;20450;-71
2021/01/29 07:15:58;;;;;;;4.77;3.27;;;10.10;99.90;;;;;;5133931;28;20484;-71
2021/01/29 07:18:40;;;;;;;3.23;2.93;;;10.10;99.90;;;;;;5134096;28;20422;-71
2021/01/29 07:21:24;;;;;;;4.13;3.13;;;10.10;99.90;;;;;;5133605;28;20433;-71
2021/01/29 07:24:06;;;;;;;3.50;3.20;;;10.10;99.90;;;;;;5133986;28;20422;-71
2021/01/29 07:26:46;;;;;;;7.47;3.60;;;10.00;99.90;;;;;;5133772;28;20458;-71
2021/01/29 07:29:43;;;;;;;5.70;4.20;;;10.10;99.90;;;;;;5133923;28;20788;-72
2021/01/29 07:32:18;;;;;;;6.63;4.20;;;10.00;99.90;;;;;;5133858;28;20458;-72
2021/01/29 07:34:52;;;;;;;5.87;3.30;;;10.10;99.90;;;;;;5133798;28;20425;-73
2021/01/29 07:37:49;;;;;;;7.63;3.80;;;10.10;99.90;;;;;;5133942;28;20433;-72
2021/01/29 07:40:46;;;;;;;6.07;3.63;;;10.10;99.90;;;;;;5133824;28;20441;-72
2021/01/29 07:43:38;;;;;;;3.03;2.23;;;10.00;99.90;;;;;;5136062;27;20943;-72
2021/01/29 07:46:24;;;;;;;6.00;2.40;;;10.00;99.90;;;;;;5136985;27;21032;-72
2021/01/29 07:49:22;;;;;;;4.40;2.17;;;10.00;99.90;;;;;;5137074;27;20836;-71
2021/01/29 07:51:53;;;;;;;2.40;2.00;;;9.90;99.90;;;;;;5137262;27;20831;-71
2021/01/29 07:54:53;;;;;;;4.00;1.77;;;9.90;99.90;;;;;;5136990;27;20426;-71
2021/01/29 07:57:41;;;;;;;4.23;2.20;;;9.90;99.90;;;;;;5137298;27;20429;-72
2021/01/29 08:00:24;;;;;;;10.87;3.20;;;9.80;99.90;;;;;;5136886;27;20434;-71
2021/01/29 08:03:22;;;;;;;6.90;3.50;;;9.80;99.90;;;;;;5137083;27;20431;-72
2021/01/29 08:05:56;;;;;;;9.27;3.57;;;9.90;99.90;;;;;;5094988;27;20470;-72
2021/01/29 08:08:28;;;;;;;12.77;3.90;;;9.90;99.90;;;;;;5136982;27;20425;-72
2021/01/29 08:10:58;;;;;;;14.20;4.33;;;9.90;99.90;;;;;;5136605;27;20465;-72
2021/01/29 08:13:39;;;;;;;9.30;4.67;;;9.90;99.90;;;;;;5136998;27;20469;-72
2021/01/29 08:16:21;;;;;;;12.60;4.40;;;9.90;99.90;;;;;;5136531;27;20505;-73
2021/01/29 08:18:54;;;;;;;12.63;3.77;;;10.00;99.90;;;;;;5136819;27;20433;-72
2021/01/29 08:22:01;;;;;;;18.37;4.20;;;10.00;99.90;;;;;;5136843;27;20418;-72
2021/01/29 08:24:46;;;;;;;15.23;4.13;;;10.00;99.90;;;;;;5136542;27;20903;-72
2021/01/29 08:27:37;;;;;;;15.83;4.33;;;10.00;99.90;;;;;;5136603;27;20896;-72
2021/01/29 08:30:23;;;;;;;18.83;3.77;;;10.10;99.90;;;;;;5080741;27;20446;-72
2021/01/29 08:33:31;;;;;;;15.47;3.90;;;10.10;99.90;;;;;;5136629;27;20414;-72
2021/01/29 08:36:23;;;;;;;15.43;4.07;;;10.10;99.60;;;;;;5136429;27;20463;-72
2021/01/29 08:39:00;;;;;;;16.10;4.20;;;10.20;99.30;;;;;;5136547;27;20426;-72
2021/01/29 08:41:35;;;;;;;20.50;4.37;;;10.20;99.00;;;;;;5136445;27;20429;-73
2021/01/29 08:44:24;;;;;;;15.73;4.57;;;10.20;98.50;;;;;;5135962;27;20930;-74
2021/01/29 08:47:08;;;;;;;20.33;4.67;;;10.20;98.50;;;;;;5136032;27;20454;-73
2021/01/29 08:50:02;;;;;;;15.47;3.80;;;10.20;98.20;;;;;;5136353;27;20422;-73
2021/01/29 08:52:58;;;;;;;16.13;4.37;;;10.20;98.50;;;;;;5138500;27;20488;-73
2021/01/29 08:55:34;;;;;;;17.57;3.73;;;10.30;97.60;;;;;;5143792;27;20487;-73
2021/01/29 08:58:21;;;;;;;19.17;4.20;;;10.20;97.30;;;;;;5136115;27;20471;-73
2021/01/29 09:00:47;;;;;;;27.90;4.40;;;10.20;97.00;;;;;;5135991;27;20418;-73
2021/01/29 09:03:24;;;;;;;18.93;3.97;;;10.20;96.60;;;;;;5135786;27;20453;-73
2021/01/29 09:05:59;;;;;;;15.60;4.80;;;10.30;96.20;;;;;;5135553;27;20500;-72
2021/01/29 09:08:25;;;;;;;17.23;4.13;;;10.30;96.50;;;;;;5135879;27;20426;-72
2021/01/29 09:11:01;;;;;;;21.40;4.10;;;10.30;96.50;;;;;;5135363;27;20999;-73
2021/01/29 09:13:30;;;;;;;15.07;4.60;;;10.30;95.70;;;;;;5135696;27;20900;-73
2021/01/29 09:16:03;;;;;;;20.47;4.90;;;10.30;95.60;;;;;;5135363;27;20990;-72
2021/01/29 09:18:34;;;;;;;17.33;4.70;;;10.30;95.90;;;;;;5135774;27;20491;-73
2021/01/29 09:21:09;;;;;;;17.40;4.57;;;10.30;95.50;;;;;;5135347;27;20842;-72
2021/01/29 09:23:46;;;;;;;16.70;3.70;;;10.30;95.50;;;;;;5135783;27;20426;-73
2021/01/29 09:26:19;;;;;;;18.23;3.50;;;10.40;95.30;;;;;;5135481;27;20465;-73
2021/01/29 09:28:50;;;;;;;14.23;3.77;;;10.40;94.90;;;;;;5135458;27;20435;-73
2021/01/29 09:31:24;;;;;;;18.30;4.93;;;10.40;94.70;;;;;;5135346;27;20462;-73
2021/01/29 09:33:57;;;;;;;21.77;4.30;;;10.50;94.60;;;;;;5135302;27;20479;-73
2021/01/29 09:36:27;;;;;;;17.50;3.80;;;10.60;94.20;;;;;;5134971;27;20465;-73
2021/01/29 09:38:57;;;;;;;12.93;3.97;;;10.60;94.30;;;;;;5136097;27;20438;-73
2021/01/29 09:41:27;;;;;;;22.63;4.03;;;10.60;94.10;;;;;;5134975;27;20426;-73
2021/01/29 09:44:02;;;;;;;17.53;5.47;;;10.60;94.00;;;;;;5135351;27;20499;-72
2021/01/29 09:46:33;;;;;;;19.60;5.30;;;10.60;94.10;;;;;;5135097;27;20461;-72
2021/01/29 09:49:04;;;;;;;27.57;4.20;;;10.60;94.10;;;;;;5135041;27;20486;-73
2021/01/29 09:51:52;;;;;;;16.07;3.93;;;10.60;94.10;;;;;;5134941;27;20511;-73
2021/01/29 09:54:24;;;;;;;33.20;3.87;;;10.60;93.60;;;;;;5135012;27;20426;-73
2021/01/29 09:56:56;;;;;;;23.80;5.40;;;10.60;93.50;;;;;;5134644;27;20458;-73
2021/01/29 09:59:34;;;;;;;17.83;4.07;;;10.70;93.60;;;;;;5135002;27;20422;-73
2021/01/29 10:02:06;;;;;;;12.63;3.30;;;10.70;93.40;;;;;;5134827;27;20422;-73
2021/01/29 10:05:00;;;;;;;17.73;4.97;;;10.70;93.50;;;;;;5134099;27;20790;-73
2021/01/29 10:07:30;;;;;;;16.10;4.10;;;10.70;93.00;;;;;;5134813;27;20471;-73
2021/01/29 10:10:04;;;;;;;16.03;4.30;;;10.80;93.10;;;;;;5134440;27;20437;-73
2021/01/29 10:12:34;;;;;;;24.37;5.03;;;10.90;92.50;;;;;;5135231;27;20469;-73
2021/01/29 10:15:04;;;;;;;10.97;3.37;;;10.90;92.50;;;;;;5134598;27;20462;-73
2021/01/29 10:17:36;;;;;;;16.17;3.80;;;10.90;92.80;;;;;;5134692;27;20430;-73
2021/01/29 10:20:06;;;;;;;21.33;3.50;;;10.90;92.90;;;;;;5134273;27;20786;-73
2021/01/29 10:22:58;;;;;;;16.60;4.10;;;11.00;92.70;;;;;;5134619;27;20418;-74
2021/01/29 10:25:42;;;;;;;25.03;4.37;;;11.10;92.10;;;;;;5134580;27;20544;-73
2021/01/29 10:28:18;;;;;;;15.20;3.07;;;11.10;91.90;;;;;;5134547;27;20426;-73
2021/01/29 10:30:50;;;;;;;16.80;4.17;;;11.10;91.50;;;;;;5134095;28;20790;-73
2021/01/29 10:33:22;;;;;;;11.50;4.00;;;11.10;91.70;;;;;;5134476;28;20434;-74
2021/01/29 10:35:57;;;;;;;14.73;4.33;;;11.20;91.80;;;;;;5134331;28;20518;-73
2021/01/29 10:38:29;;;;;;;15.17;3.77;;;11.20;91.60;;;;;;5134402;28;20491;-73
2021/01/29 10:41:03;;;;;;;15.50;4.27;;;11.20;91.40;;;;;;5134426;28;20418;-73
2021/01/29 10:43:40;;;;;;;17.30;3.23;;;11.20;91.90;;;;;;5134340;28;20425;-73
2021/01/29 10:46:29;;;;;;;13.80;3.20;;;11.20;91.70;;;;;;5135200;28;20462;-73
2021/01/29 10:49:02;;;;;;;19.13;3.80;;;11.20;91.80;;;;;;5134463;28;20429;-73
2021/01/29 10:51:43;;;;;;;12.97;3.03;;;11.20;91.70;;;;;;5134206;28;20466;-73
2021/01/29 10:54:13;;;;;;;13.83;4.30;;;11.20;91.90;;;;;;5134346;28;20430;-73
2021/01/29 10:56:50;;;;;;;20.67;5.30;;;11.10;91.80;;;;;;5134135;28;20465;-73
2021/01/29 10:59:23;;;;;;;16.83;3.67;;;11.10;92.10;;;;;;5134210;28;20429;-73
2021/01/29 11:01:59;;;;;;;19.23;5.60;;;11.10;92.30;;;;;;5134230;28;20430;-73
2021/01/29 11:04:28;;;;;;;20.13;4.30;;;11.10;92.40;;;;;;5134195;28;20449;-73
2021/01/29 11:07:01;;;;;;;17.43;4.03;;;11.00;92.70;;;;;;5133660;28;20470;-73
2021/01/29 11:09:30;;;;;;;15.97;3.13;;;11.00;92.80;;;;;;5134136;28;20513;-73
2021/01/29 11:12:06;;;;;;;23.87;4.60;;;11.10;92.80;;;;;;5134045;28;20568;-73
2021/01/29 11:14:38;;;;;;;18.67;5.30;;;11.00;92.80;;;;;;5134055;28;20482;-73
2021/01/29 11:17:08;;;;;;;29.93;4.53;;;11.10;92.90;;;;;;5136636;27;20429;-73
2021/01/29 11:19:40;;;;;;;17.77;4.03;;;11.20;93.00;;;;;;5137923;27;20434;-73
2021/01/29 11:22:16;;;;;;;17.13;3.70;;;11.20;92.50;;;;;;5137989;27;20478;-73
2021/01/29 11:25:00;;;;;;;19.13;4.07;;;11.30;92.60;;;;;;5137851;27;20451;-73
2021/01/29 11:27:32;;;;;;;15.67;4.93;;;11.40;92.60;;;;;;5137831;27;20438;-73
2021/01/29 11:30:05;;;;;;;21.10;3.60;;;11.40;92.20;;;;;;5137531;27;20911;-73
2021/01/29 11:32:34;;;;;;;19.37;3.90;;;11.30;92.40;;;;;;5138245;27;20531;-74
2021/01/29 11:35:23;;;;;;;13.57;4.30;;;11.30;92.90;;;;;;5137643;27;20458;-74
2021/01/29 11:38:22;;;;;;;19.70;4.30;;;11.20;93.60;;;;;;5137363;27;20896;-73
2021/01/29 11:41:03;;;;;;;18.87;3.20;;;11.20;94.00;;;;;;5137282;27;20895;-73
2021/01/29 11:43:39;;;;;;;24.70;3.90;;;11.20;94.10;;;;;;5137537;27;20421;-74
2021/01/29 11:46:19;;;;;;;20.17;4.87;;;11.20;93.50;;;;;;5137412;27;20461;-74
2021/01/29 11:48:52;;;;;;;22.53;4.60;;;11.30;94.20;;;;;;5137450;27;20510;-74
2021/01/29 11:51:26;;;;;;;17.57;3.67;;;11.40;93.40;;;;;;5137014;27;20457;-73
2021/01/29 11:54:09;;;;;;;16.83;3.93;;;11.50;92.70;;;;;;5137072;27;20427;-73
2021/01/29 11:56:40;;;;;;;14.17;2.97;;;11.50;92.70;;;;;;5137235;27;20518;-74
2021/01/29 11:59:19;;;;;;;12.73;3.40;;;11.40;92.90;;;;;;5136937;27;20903;-73
2021/01/29 12:01:53;;;;;;;17.17;3.53;;;11.40;93.20;;;;;;5137164;27;20460;-73
2021/01/29 12:04:29;;;;;;;12.60;2.97;;;11.50;92.80;;;;;;5137125;27;20789;-73
2021/01/29 12:07:03;;;;;;;10.03;3.30;;;11.70;92.90;;;;;;5136670;27;20518;-73
2021/01/29 12:09:41;;;;;;;14.47;3.93;;;11.90;92.20;;;;;;5137014;27;20430;-73
2021/01/29 12:12:15;;;;;;;17.20;3.80;;;12.00;91.10;;;;;;5136942;27;20465;-73
2021/01/29 12:14:56;;;;;;;14.97;2.90;;;12.00;90.70;;;;;;5136929;27;20429;-73
2021/01/29 12:17:25;;;;;;;14.60;2.77;;;11.90;91.10;;;;;;5136956;27;20430;-73
2021/01/29 12:19:59;;;;;;;16.53;2.90;;;11.90;91.10;;;;;;5136500;27;20438;-73
2021/01/29 12:22:31;;;;;;;19.43;3.83;;;11.90;90.60;;;;;;5136741;27;20423;-73
2021/01/29 12:25:13;;;;;;;10.40;3.20;;;12.00;90.50;;;;;;5136628;27;20469;-73
2021/01/29 12:27:45;;;;;;;13.10;3.83;;;12.00;90.40;;;;;;5135905;27;20426;-73
2021/01/29 12:30:19;;;;;;;14.10;3.40;;;12.00;89.60;;;;;;5136548;27;20422;-73
2021/01/29 12:32:59;;;;;;;9.83;3.63;;;11.90;90.10;;;;;;5136478;27;20469;-73
2021/01/29 12:35:30;;;;;;;12.83;2.97;;;12.00;89.70;;;;;;5136491;27;20459;-73
2021/01/29 12:38:09;;;;;;;12.47;2.70;;;12.10;89.10;;;;;;5136137;27;20422;-73
2021/01/29 12:40:39;;;;;;;10.40;2.40;;;12.20;90.30;;;;;;5136471;27;20478;-73
2021/01/29 12:43:13;;;;;;;5.33;1.83;;;12.20;89.00;;;;;;5136025;27;20992;-73
2021/01/29 12:45:42;;;;;;;10.50;2.40;;;12.00;87.80;;;;;;5136264;27;20454;-73
2021/01/29 12:48:16;;;;;;;11.53;3.70;;;11.80;88.40;;;;;;5135916;27;20866;-73
2021/01/29 12:51:00;;;;;;;10.30;3.30;;;11.70;90.30;;;;;;5136194;27;20430;-73
2021/01/29 12:53:35;;;;;;;15.07;2.80;;;11.60;91.30;;;;;;5135864;27;20426;-73
2021/01/29 12:56:14;;;;;;;16.60;2.77;;;11.40;92.10;;;;;;5136114;27;20457;-73
2021/01/29 12:58:43;;;;;;;18.13;2.67;;;11.30;92.20;;;;;;5136077;27;20426;-73
2021/01/29 13:01:21;;;;;;;10.43;2.00;;;11.20;92.40;;;;;;5135966;27;20456;-73
2021/01/29 13:03:55;;;;;;;10.10;2.40;;;11.10;91.70;;;;;;5136040;27;20432;-73
2021/01/29 13:06:34;;;;;;;12.37;3.57;;;11.00;92.00;;;;;;5135531;27;20530;-73
2021/01/29 13:09:18;;;;;;;12.77;2.60;;;11.00;92.00;;;;;;5136071;27;20475;-73
2021/01/29 13:11:55;;;;;;;8.00;2.03;;;10.90;91.90;;;;;;5135845;27;20535;-73
2021/01/29 13:14:29;;;;;;;15.10;2.70;;;10.90;91.90;;;;;;5135556;27;20803;-73
2021/01/29 13:17:18;;;;;;;17.40;3.00;;;11.00;91.70;;;;;;5135866;27;20468;-73
2021/01/29 13:19:47;;;;;;;9.30;2.43;;;11.10;91.80;;;;;;5135643;27;20426;-73
2021/01/29 13:22:43;;;;;;;14.37;3.50;;;11.30;91.80;;;;;;5135751;27;20445;-73
2021/01/29 13:25:20;;;;;;;13.17;2.60;;;11.30;91.80;;;;;;5135632;27;20540;-73
2021/01/29 13:27:55;;;;;;;7.47;3.90;;;11.70;90.70;;;;;;5135271;27;20426;-73
2021/01/29 13:30:26;;;;;;;14.77;2.57;;;12.10;86.70;;;;;;5136083;27;20426;-73
2021/01/29 13:32:53;;;;;;;12.67;3.33;;;12.60;83.50;;;;;;5135395;27;20936;-73
2021/01/29 13:35:28;;;;;;;12.17;2.53;;;13.10;81.70;;;;;;5135461;27;20488;-73
2021/01/29 13:38:06;;;;;;;9.80;2.20;;;13.30;78.30;;;;;;5135527;27;20421;-73
2021/01/29 13:40:33;;;;;;;16.23;2.73;;;13.00;78.60;;;;;;5135392;27;20475;-73
2021/01/29 13:43:11;;;;;;;13.37;1.97;;;12.90;79.80;;;;;;5134910;27;20935;-72